sensor_id;sensor_type;location;lat;lon;timestamp;pressure;altitude;pressure_sealevel;temperature;humidity
45793;BME280;31495;42.740;22.908;2022-07-17T00:00:21;93504.44;;;21.47;54.07
45793;BME280;31495;42.740;22.908;2022-07-17T00:01:21;93491.84;;;21.39;54.27
45793;BME280;31495;42.740;22.908;2022-07-17T00:02:21;93485.78;;;21.33;54.36
45793;BME280;31495;42.740;22.908;2022-07-17T00:03:20;93508.41;;;21.50;54.27
45793;BME280;31495;42.740;22.908;2022-07-17T00:04:19;93529.97;;;21.62;53.85
45793;BME280;31495;42.740;22.908;2022-07-17T00:05:19;93506.56;;;21.50;53.33
45793;BME280;31495;42.740;22.908;2022-07-17T00:06:19;93519.44;;;21.62;53.32
45793;BME280;31495;42.740;22.908;2022-07-17T00:07:18;93527.28;;;21.72;53.31
45793;BME280;31495;42.740;22.908;2022-07-17T00:08:18;93529.66;;;21.74;52.92
45793;BME280;31495;42.740;22.908;2022-07-17T00:09:17;93491.28;;;21.52;53.19
45793;BME280;31495;42.740;22.908;2022-07-17T00:10:17;93527.03;;;21.74;52.64
45793;BME280;31495;42.740;22.908;2022-07-17T00:11:17;93513.88;;;21.69;53.09
45793;BME280;31495;42.740;22.908;2022-07-17T00:12:16;93516.25;;;21.65;53.50
45793;BME280;31495;42.740;22.908;2022-07-17T00:13:15;93496.53;;;21.57;53.56
45793;BME280;31495;42.740;22.908;2022-07-17T00:14:15;93505.22;;;21.58;52.92
45793;BME280;31495;42.740;22.908;2022-07-17T00:15:14;93534.41;;;21.72;53.06
45793;BME280;31495;42.740;22.908;2022-07-17T00:16:14;93495.53;;;21.48;53.03
45793;BME280;31495;42.740;22.908;2022-07-17T00:17:13;93525.72;;;21.71;52.91
45793;BME280;31495;42.740;22.908;2022-07-17T00:18:13;93504.19;;;21.54;52.90
45793;BME280;31495;42.740;22.908;2022-07-17T00:19:12;93507.84;;;21.58;53.19
45793;BME280;31495;42.740;22.908;2022-07-17T00:20:12;93516.03;;;21.61;53.29
45793;BME280;31495;42.740;22.908;2022-07-17T00:21:11;93511.56;;;21.57;52.97
45793;BME280;31495;42.740;22.908;2022-07-17T00:22:11;93529.44;;;21.60;53.08
45793;BME280;31495;42.740;22.908;2022-07-17T00:23:10;93510.53;;;21.47;52.76
45793;BME280;31495;42.740;22.908;2022-07-17T00:24:10;93534.69;;;21.65;52.57
45793;BME280;31495;42.740;22.908;2022-07-17T00:25:11;93513.66;;;21.50;52.41
45793;BME280;31495;42.740;22.908;2022-07-17T00:26:11;93518.94;;;21.50;52.38
45793;BME280;31495;42.740;22.908;2022-07-17T00:27:10;93516.81;;;21.46;52.83
45793;BME280;31495;42.740;22.908;2022-07-17T00:28:10;93514.75;;;21.48;52.98
45793;BME280;31495;42.740;22.908;2022-07-17T00:29:10;93497.63;;;21.36;53.08
45793;BME280;31495;42.740;22.908;2022-07-17T00:30:10;93539.69;;;21.66;53.35
45793;BME280;31495;42.740;22.908;2022-07-17T00:31:10;93508.13;;;21.41;53.28
45793;BME280;31495;42.740;22.908;2022-07-17T00:32:09;93533.94;;;21.54;53.44
45793;BME280;31495;42.740;22.908;2022-07-17T00:33:09;93521.56;;;21.39;53.59
45793;BME280;31495;42.740;22.908;2022-07-17T00:34:09;93545.25;;;21.60;53.58
45793;BME280;31495;42.740;22.908;2022-07-17T00:35:09;93543.41;;;21.60;53.23
45793;BME280;31495;42.740;22.908;2022-07-17T00:36:09;93547.88;;;21.60;53.04
45793;BME280;31495;42.740;22.908;2022-07-17T00:37:08;93541.31;;;21.52;52.91
45793;BME280;31495;42.740;22.908;2022-07-17T00:38:08;93535.78;;;21.43;53.35
45793;BME280;31495;42.740;22.908;2022-07-17T00:39:09;93516.84;;;21.36;53.18
45793;BME280;31495;42.740;22.908;2022-07-17T00:40:11;93540.78;;;21.50;53.40
45793;BME280;31495;42.740;22.908;2022-07-17T00:41:14;93527.63;;;21.35;53.70
45793;BME280;31495;42.740;22.908;2022-07-17T00:42:15;93531.59;;;21.27;53.61
45793;BME280;31495;42.740;22.908;2022-07-17T00:43:14;93528.44;;;21.25;53.49
45793;BME280;31495;42.740;22.908;2022-07-17T00:44:14;93549.75;;;21.34;53.92
45793;BME280;31495;42.740;22.908;2022-07-17T00:45:14;93537.94;;;21.21;54.02
45793;BME280;31495;42.740;22.908;2022-07-17T00:46:14;93519.53;;;21.05;54.20
45793;BME280;31495;42.740;22.908;2022-07-17T00:47:16;93553.97;;;21.24;53.97
45793;BME280;31495;42.740;22.908;2022-07-17T00:48:16;93507.44;;;20.99;53.82
45793;BME280;31495;42.740;22.908;2022-07-17T00:49:15;93522.41;;;21.14;54.40
45793;BME280;31495;42.740;22.908;2022-07-17T00:50:15;93528.22;;;21.11;54.37
45793;BME280;31495;42.740;22.908;2022-07-17T00:51:14;93514.28;;;21.10;54.16
45793;BME280;31495;42.740;22.908;2022-07-17T00:52:15;93544.75;;;21.32;54.14
45793;BME280;31495;42.740;22.908;2022-07-17T00:53:15;93520.56;;;21.20;54.10
45793;BME280;31495;42.740;22.908;2022-07-17T00:54:15;93530.03;;;21.21;54.11
45793;BME280;31495;42.740;22.908;2022-07-17T00:55:17;93505.31;;;21.06;54.16
45793;BME280;31495;42.740;22.908;2022-07-17T00:56:17;93542.41;;;21.20;54.10
45793;BME280;31495;42.740;22.908;2022-07-17T00:57:20;93531.88;;;21.10;54.42
45793;BME280;31495;42.740;22.908;2022-07-17T00:58:23;93515.59;;;21.03;55.01
45793;BME280;31495;42.740;22.908;2022-07-17T00:59:24;93542.66;;;21.08;55.13
45793;BME280;31495;42.740;22.908;2022-07-17T01:00:24;93512.97;;;20.87;55.22
45793;BME280;31495;42.740;22.908;2022-07-17T01:01:23;93517.94;;;20.89;55.32
45793;BME280;31495;42.740;22.908;2022-07-17T01:02:23;93507.19;;;20.75;55.15
45793;BME280;31495;42.740;22.908;2022-07-17T01:03:24;93510.06;;;20.79;54.92
45793;BME280;31495;42.740;22.908;2022-07-17T01:04:23;93510.88;;;20.74;55.47
45793;BME280;31495;42.740;22.908;2022-07-17T01:05:23;93510.88;;;20.69;55.28
45793;BME280;31495;42.740;22.908;2022-07-17T01:06:22;93541.63;;;20.89;55.54
45793;BME280;31495;42.740;22.908;2022-07-17T01:07:22;93515.59;;;20.72;55.50
45793;BME280;31495;42.740;22.908;2022-07-17T01:08:21;93519.00;;;20.72;55.79
45793;BME280;31495;42.740;22.908;2022-07-17T01:09:21;93526.13;;;20.67;55.50
45793;BME280;31495;42.740;22.908;2022-07-17T01:10:20;93551.09;;;20.85;55.95
45793;BME280;31495;42.740;22.908;2022-07-17T01:11:20;93531.59;;;20.60;55.88
45793;BME280;31495;42.740;22.908;2022-07-17T01:12:20;93517.66;;;20.49;56.11
45793;BME280;31495;42.740;22.908;2022-07-17T01:13:21;93545.59;;;20.76;56.02
45793;BME280;31495;42.740;22.908;2022-07-17T01:14:24;93537.94;;;20.64;55.62
45793;BME280;31495;42.740;22.908;2022-07-17T01:15:23;93512.66;;;20.48;55.76
45793;BME280;31495;42.740;22.908;2022-07-17T01:16:23;93528.47;;;20.58;55.74
45793;BME280;31495;42.740;22.908;2022-07-17T01:17:22;93544.53;;;20.67;56.09
45793;BME280;31495;42.740;22.908;2022-07-17T01:18:23;93537.38;;;20.57;55.81
45793;BME280;31495;42.740;22.908;2022-07-17T01:19:22;93533.72;;;20.53;56.03
45793;BME280;31495;42.740;22.908;2022-07-17T01:20:22;93534.25;;;20.50;56.14
45793;BME280;31495;42.740;22.908;2022-07-17T01:21:21;93534.50;;;20.43;55.76
45793;BME280;31495;42.740;22.908;2022-07-17T01:22:21;93558.94;;;20.54;56.11
45793;BME280;31495;42.740;22.908;2022-07-17T01:23:21;93527.38;;;20.33;55.91
45793;BME280;31495;42.740;22.908;2022-07-17T01:24:20;93534.75;;;20.42;55.94
45793;BME280;31495;42.740;22.908;2022-07-17T01:25:21;93562.66;;;20.63;56.29
45793;BME280;31495;42.740;22.908;2022-07-17T01:26:21;93540.00;;;20.52;55.85
45793;BME280;31495;42.740;22.908;2022-07-17T01:27:21;93534.50;;;20.43;56.17
45793;BME280;31495;42.740;22.908;2022-07-17T01:28:21;93541.31;;;20.44;56.14
45793;BME280;31495;42.740;22.908;2022-07-17T01:29:20;93549.75;;;20.51;55.99
45793;BME280;31495;42.740;22.908;2022-07-17T01:30:19;93535.28;;;20.38;56.46
45793;BME280;31495;42.740;22.908;2022-07-17T01:31:19;93536.56;;;20.41;56.57
45793;BME280;31495;42.740;22.908;2022-07-17T01:32:18;93544.19;;;20.48;56.65
45793;BME280;31495;42.740;22.908;2022-07-17T01:33:18;93559.19;;;20.57;56.41
45793;BME280;31495;42.740;22.908;2022-07-17T01:34:18;93545.53;;;20.40;56.44
45793;BME280;31495;42.740;22.908;2022-07-17T01:35:18;93545.22;;;20.36;56.62
45793;BME280;31495;42.740;22.908;2022-07-17T01:36:22;93556.56;;;20.52;56.59
45793;BME280;31495;42.740;22.908;2022-07-17T01:37:22;93535.78;;;20.35;56.42
45793;BME280;31495;42.740;22.908;2022-07-17T01:38:22;93518.69;;;20.23;56.66
45793;BME280;31495;42.740;22.908;2022-07-17T01:39:22;93536.81;;;20.29;56.47
45793;BME280;31495;42.740;22.908;2022-07-17T01:40:41;93538.41;;;20.41;56.46
45793;BME280;31495;42.740;22.908;2022-07-17T01:41:41;93524.47;;;20.30;56.27
45793;BME280;31495;42.740;22.908;2022-07-17T01:42:46;93522.59;;;20.20;56.14
45793;BME280;31495;42.740;22.908;2022-07-17T01:43:45;93517.34;;;20.10;56.20
45793;BME280;31495;42.740;22.908;2022-07-17T01:44:45;93526.53;;;20.12;56.01
45793;BME280;31495;42.740;22.908;2022-07-17T01:45:44;93560.22;;;20.31;55.55
45793;BME280;31495;42.740;22.908;2022-07-17T01:46:43;93520.47;;;20.01;56.32
45793;BME280;31495;42.740;22.908;2022-07-17T01:47:43;93556.25;;;20.23;56.49
45793;BME280;31495;42.740;22.908;2022-07-17T01:48:42;93564.69;;;20.25;57.33
45793;BME280;31495;42.740;22.908;2022-07-17T01:49:47;93538.31;;;19.99;57.38
45793;BME280;31495;42.740;22.908;2022-07-17T01:50:47;93545.44;;;20.04;56.84
45793;BME280;31495;42.740;22.908;2022-07-17T01:51:46;93565.44;;;20.15;56.65
45793;BME280;31495;42.740;22.908;2022-07-17T01:52:46;93533.34;;;20.03;55.86
45793;BME280;31495;42.740;22.908;2022-07-17T01:53:45;93548.88;;;20.15;55.52
45793;BME280;31495;42.740;22.908;2022-07-17T01:54:45;93539.16;;;20.15;55.17
45793;BME280;31495;42.740;22.908;2022-07-17T01:55:45;93554.94;;;20.20;55.48
45793;BME280;31495;42.740;22.908;2022-07-17T01:56:45;93546.25;;;20.15;55.45
45793;BME280;31495;42.740;22.908;2022-07-17T01:57:45;93551.25;;;20.22;55.27
45793;BME280;31495;42.740;22.908;2022-07-17T01:58:44;93552.06;;;20.27;55.30
45793;BME280;31495;42.740;22.908;2022-07-17T01:59:44;93528.09;;;20.08;55.66
45793;BME280;31495;42.740;22.908;2022-07-17T02:00:43;93553.09;;;20.21;56.05
45793;BME280;31495;42.740;22.908;2022-07-17T02:01:43;93563.59;;;20.26;56.14
45793;BME280;31495;42.740;22.908;2022-07-17T02:02:43;93534.44;;;20.12;56.38
45793;BME280;31495;42.740;22.908;2022-07-17T02:03:43;93550.22;;;20.23;56.25
45793;BME280;31495;42.740;22.908;2022-07-17T02:04:43;93550.97;;;20.18;55.63
45793;BME280;31495;42.740;22.908;2022-07-17T02:05:43;93541.78;;;20.10;55.13
45793;BME280;31495;42.740;22.908;2022-07-17T02:06:43;93546.25;;;20.20;55.00
45793;BME280;31495;42.740;22.908;2022-07-17T02:07:42;93512.84;;;19.95;55.00
45793;BME280;31495;42.740;22.908;2022-07-17T02:08:43;93550.97;;;20.08;55.16
45793;BME280;31495;42.740;22.908;2022-07-17T02:09:43;93531.75;;;19.97;55.63
45793;BME280;31495;42.740;22.908;2022-07-17T02:10:42;93558.84;;;20.13;55.64
45793;BME280;31495;42.740;22.908;2022-07-17T02:11:42;93533.06;;;19.94;55.36
45793;BME280;31495;42.740;22.908;2022-07-17T02:12:43;93562.00;;;20.15;55.51
45793;BME280;31495;42.740;22.908;2022-07-17T02:13:43;93548.31;;;20.02;55.99
45793;BME280;31495;42.740;22.908;2022-07-17T02:14:43;93554.59;;;20.01;55.79
45793;BME280;31495;42.740;22.908;2022-07-17T02:15:42;93494.16;;;19.76;56.06
45793;BME280;31495;42.740;22.908;2022-07-17T02:16:42;93564.13;;;20.23;55.85
45793;BME280;31495;42.740;22.908;2022-07-17T02:17:42;93557.06;;;20.24;55.69
45793;BME280;31495;42.740;22.908;2022-07-17T02:18:42;93540.47;;;20.13;55.12
45793;BME280;31495;42.740;22.908;2022-07-17T02:19:41;93533.34;;;20.13;55.61
45793;BME280;31495;42.740;22.908;2022-07-17T02:20:41;93526.28;;;20.09;55.22
45793;BME280;31495;42.740;22.908;2022-07-17T02:21:40;93550.47;;;20.21;55.58
45793;BME280;31495;42.740;22.908;2022-07-17T02:22:40;93532.56;;;20.08;55.75
45793;BME280;31495;42.740;22.908;2022-07-17T02:23:40;93555.72;;;20.21;55.72
45793;BME280;31495;42.740;22.908;2022-07-17T02:24:39;93541.28;;;20.18;56.01
45793;BME280;31495;42.740;22.908;2022-07-17T02:25:39;93568.59;;;20.28;55.76
45793;BME280;31495;42.740;22.908;2022-07-17T02:26:38;93564.13;;;20.18;55.70
45793;BME280;31495;42.740;22.908;2022-07-17T02:27:39;93570.94;;;20.09;56.21
45793;BME280;31495;42.740;22.908;2022-07-17T02:28:38;93544.84;;;19.92;56.40
45793;BME280;31495;42.740;22.908;2022-07-17T02:29:38;93578.56;;;20.15;55.97
45793;BME280;31495;42.740;22.908;2022-07-17T02:30:37;93539.34;;;19.88;56.09
45793;BME280;31495;42.740;22.908;2022-07-17T02:31:37;93572.97;;;19.96;56.07
45793;BME280;31495;42.740;22.908;2022-07-17T02:32:36;93584.84;;;20.04;55.87
45793;BME280;31495;42.740;22.908;2022-07-17T02:33:35;93578.50;;;20.05;56.09
45793;BME280;31495;42.740;22.908;2022-07-17T02:34:35;93558.81;;;19.97;55.89
45793;BME280;31495;42.740;22.908;2022-07-17T02:35:34;93554.06;;;19.94;55.98
45793;BME280;31495;42.740;22.908;2022-07-17T02:36:34;93552.22;;;19.90;56.13
45793;BME280;31495;42.740;22.908;2022-07-17T02:37:34;93574.06;;;20.00;56.21
45793;BME280;31495;42.740;22.908;2022-07-17T02:38:33;93576.38;;;19.97;55.96
45793;BME280;31495;42.740;22.908;2022-07-17T02:39:33;93548.75;;;19.79;56.12
45793;BME280;31495;42.740;22.908;2022-07-17T02:40:32;93565.59;;;19.88;55.52
45793;BME280;31495;42.740;22.908;2022-07-17T02:41:32;93539.22;;;19.68;55.57
45793;BME280;31495;42.740;22.908;2022-07-17T02:42:32;93567.41;;;19.82;54.49
45793;BME280;31495;42.740;22.908;2022-07-17T02:43:32;93533.94;;;19.62;53.22
45793;BME280;31495;42.740;22.908;2022-07-17T02:44:31;93569.50;;;19.80;53.87
45793;BME280;31495;42.740;22.908;2022-07-17T02:45:32;93557.16;;;19.76;53.38
45793;BME280;31495;42.740;22.908;2022-07-17T02:46:31;93560.78;;;19.75;53.50
45793;BME280;31495;42.740;22.908;2022-07-17T02:47:32;93562.63;;;19.74;53.83
45793;BME280;31495;42.740;22.908;2022-07-17T02:48:32;93575.00;;;19.79;53.52
45793;BME280;31495;42.740;22.908;2022-07-17T02:49:32;93571.06;;;19.76;53.37
45793;BME280;31495;42.740;22.908;2022-07-17T02:50:31;93578.69;;;19.83;53.20
45793;BME280;31495;42.740;22.908;2022-07-17T02:51:31;93595.03;;;19.95;53.57
45793;BME280;31495;42.740;22.908;2022-07-17T02:52:30;93595.81;;;19.91;53.60
45793;BME280;31495;42.740;22.908;2022-07-17T02:53:30;93573.91;;;19.75;53.51
45793;BME280;31495;42.740;22.908;2022-07-17T02:54:29;93584.75;;;19.83;53.60
45793;BME280;31495;42.740;22.908;2022-07-17T02:55:28;93590.50;;;19.86;54.15
45793;BME280;31495;42.740;22.908;2022-07-17T02:56:28;93583.06;;;19.72;54.02
45793;BME280;31495;42.740;22.908;2022-07-17T02:57:28;93560.16;;;19.52;53.82
45793;BME280;31495;42.740;22.908;2022-07-17T02:58:27;93569.38;;;19.60;53.79
45793;BME280;31495;42.740;22.908;2022-07-17T02:59:27;93593.38;;;19.79;53.29
45793;BME280;31495;42.740;22.908;2022-07-17T03:00:26;93587.00;;;19.64;53.38
45793;BME280;31495;42.740;22.908;2022-07-17T03:01:29;93595.94;;;19.74;53.04
45793;BME280;31495;42.740;22.908;2022-07-17T03:02:28;93571.19;;;19.59;53.37
45793;BME280;31495;42.740;22.908;2022-07-17T03:03:28;93577.75;;;19.57;53.51
45793;BME280;31495;42.740;22.908;2022-07-17T03:04:28;93603.03;;;19.68;53.16
45793;BME280;31495;42.740;22.908;2022-07-17T03:05:28;93603.03;;;19.68;53.26
45793;BME280;31495;42.740;22.908;2022-07-17T03:06:27;93566.63;;;19.39;53.48
45793;BME280;31495;42.740;22.908;2022-07-17T03:07:27;93581.66;;;19.49;53.41
45793;BME280;31495;42.740;22.908;2022-07-17T03:08:27;93578.47;;;19.42;52.68
45793;BME280;31495;42.740;22.908;2022-07-17T03:09:26;93592.16;;;19.54;53.24
45793;BME280;31495;42.740;22.908;2022-07-17T03:10:26;93616.41;;;19.67;53.54
45793;BME280;31495;42.740;22.908;2022-07-17T03:11:25;93590.84;;;19.52;52.73
45793;BME280;31495;42.740;22.908;2022-07-17T03:12:25;93606.91;;;19.60;53.00
45793;BME280;31495;42.740;22.908;2022-07-17T03:13:24;93593.44;;;19.46;53.14
45793;BME280;31495;42.740;22.908;2022-07-17T03:14:24;93611.13;;;19.61;52.89
45793;BME280;31495;42.740;22.908;2022-07-17T03:15:24;93610.03;;;19.57;52.82
45793;BME280;31495;42.740;22.908;2022-07-17T03:16:24;93611.09;;;19.56;52.49
45793;BME280;31495;42.740;22.908;2022-07-17T03:17:23;93583.44;;;19.38;52.88
45793;BME280;31495;42.740;22.908;2022-07-17T03:18:22;93595.81;;;19.48;52.94
45793;BME280;31495;42.740;22.908;2022-07-17T03:19:22;93624.75;;;19.58;53.13
45793;BME280;31495;42.740;22.908;2022-07-17T03:20:21;93613.47;;;19.58;53.07
45793;BME280;31495;42.740;22.908;2022-07-17T03:21:21;93598.13;;;19.44;53.24
45793;BME280;31495;42.740;22.908;2022-07-17T03:22:20;93606.31;;;19.48;52.91
45793;BME280;31495;42.740;22.908;2022-07-17T03:23:19;93593.38;;;19.36;52.75
45793;BME280;31495;42.740;22.908;2022-07-17T03:24:19;93586.81;;;19.34;53.14
45793;BME280;31495;42.740;22.908;2022-07-17T03:25:19;93603.91;;;19.41;52.89
45793;BME280;31495;42.740;22.908;2022-07-17T03:26:18;93620.75;;;19.51;53.00
45793;BME280;31495;42.740;22.908;2022-07-17T03:27:17;93584.16;;;19.28;53.20
45793;BME280;31495;42.740;22.908;2022-07-17T03:28:17;93630.00;;;19.58;53.09
45793;BME280;31495;42.740;22.908;2022-07-17T03:29:17;93612.84;;;19.45;52.78
45793;BME280;31495;42.740;22.908;2022-07-17T03:30:17;93604.16;;;19.40;52.81
45793;BME280;31495;42.740;22.908;2022-07-17T03:31:16;93613.09;;;19.44;52.64
45793;BME280;31495;42.740;22.908;2022-07-17T03:32:16;93613.09;;;19.44;52.00
45793;BME280;31495;42.740;22.908;2022-07-17T03:33:15;93621.50;;;19.46;52.18
45793;BME280;31495;42.740;22.908;2022-07-17T03:34:14;93604.91;;;19.35;52.06
45793;BME280;31495;42.740;22.908;2022-07-17T03:35:14;93581.13;;;19.09;52.20
45793;BME280;31495;42.740;22.908;2022-07-17T03:36:14;93618.56;;;19.37;51.97
45793;BME280;31495;42.740;22.908;2022-07-17T03:37:14;93613.56;;;19.36;52.22
45793;BME280;31495;42.740;22.908;2022-07-17T03:38:13;93608.84;;;19.38;51.94
45793;BME280;31495;42.740;22.908;2022-07-17T03:39:12;93578.78;;;19.13;52.27
45793;BME280;31495;42.740;22.908;2022-07-17T03:40:13;93598.06;;;19.29;52.29
45793;BME280;31495;42.740;22.908;2022-07-17T03:41:12;93614.41;;;19.41;52.31
45793;BME280;31495;42.740;22.908;2022-07-17T03:42:12;93601.75;;;19.33;52.10
45793;BME280;31495;42.740;22.908;2022-07-17T03:43:11;93634.16;;;19.54;51.77
45793;BME280;31495;42.740;22.908;2022-07-17T03:44:11;93631.53;;;19.54;51.68
45793;BME280;31495;42.740;22.908;2022-07-17T03:45:11;93628.88;;;19.49;51.39
45793;BME280;31495;42.740;22.908;2022-07-17T03:46:10;93609.09;;;19.36;51.61
45793;BME280;31495;42.740;22.908;2022-07-17T03:47:10;93620.44;;;19.42;51.18
45793;BME280;31495;42.740;22.908;2022-07-17T03:48:09;93630.72;;;19.49;51.63
45793;BME280;31495;42.740;22.908;2022-07-17T03:49:08;93607.00;;;19.33;51.86
45793;BME280;31495;42.740;22.908;2022-07-17T03:50:09;93600.97;;;19.33;51.12
45793;BME280;31495;42.740;22.908;2022-07-17T03:51:09;93609.34;;;19.35;51.14
45793;BME280;31495;42.740;22.908;2022-07-17T03:52:09;93628.88;;;19.49;51.22
45793;BME280;31495;42.740;22.908;2022-07-17T03:53:08;93612.03;;;19.40;51.21
45793;BME280;31495;42.740;22.908;2022-07-17T03:54:08;93640.47;;;19.53;50.75
45793;BME280;31495;42.740;22.908;2022-07-17T03:55:07;93614.94;;;19.43;50.89
45793;BME280;31495;42.740;22.908;2022-07-17T03:56:07;93644.97;;;19.58;50.59
45793;BME280;31495;42.740;22.908;2022-07-17T03:57:07;93623.59;;;19.44;50.35
45793;BME280;31495;42.740;22.908;2022-07-17T03:58:06;93629.94;;;19.48;50.66
45793;BME280;31495;42.740;22.908;2022-07-17T03:59:06;93642.91;;;19.65;50.24
45793;BME280;31495;42.740;22.908;2022-07-17T04:00:06;93615.25;;;19.52;50.47
45793;BME280;31495;42.740;22.908;2022-07-17T04:01:06;93613.41;;;19.53;50.00
45793;BME280;31495;42.740;22.908;2022-07-17T04:02:05;93624.00;;;19.63;50.06
45793;BME280;31495;42.740;22.908;2022-07-17T04:03:04;93634.25;;;19.70;50.19
45793;BME280;31495;42.740;22.908;2022-07-17T04:04:04;93646.88;;;19.73;50.53
45793;BME280;31495;42.740;22.908;2022-07-17T04:05:04;93614.75;;;19.55;50.65
45793;BME280;31495;42.740;22.908;2022-07-17T04:06:04;93625.31;;;19.65;50.17
45793;BME280;31495;42.740;22.908;2022-07-17T04:07:04;93637.16;;;19.73;50.06
45793;BME280;31495;42.740;22.908;2022-07-17T04:08:03;93629.59;;;19.77;49.58
45793;BME280;31495;42.740;22.908;2022-07-17T04:09:04;93617.97;;;19.68;49.99
45793;BME280;31495;42.740;22.908;2022-07-17T04:10:04;93587.41;;;19.46;50.17
45793;BME280;31495;42.740;22.908;2022-07-17T04:11:04;93597.41;;;19.54;50.48
45793;BME280;31495;42.740;22.908;2022-07-17T04:12:04;93602.13;;;19.52;50.03
45793;BME280;31495;42.740;22.908;2022-07-17T04:13:03;93620.88;;;19.66;49.98
45793;BME280;31495;42.740;22.908;2022-07-17T04:14:03;93650.38;;;19.83;49.62
45793;BME280;31495;42.740;22.908;2022-07-17T04:15:04;93642.25;;;19.85;49.70
45793;BME280;31495;42.740;22.908;2022-07-17T04:16:04;93622.78;;;19.76;49.70
45793;BME280;31495;42.740;22.908;2022-07-17T04:17:04;93604.56;;;19.64;49.44
45793;BME280;31495;42.740;22.908;2022-07-17T04:18:04;93610.91;;;19.68;49.12
45793;BME280;31495;42.740;22.908;2022-07-17T04:19:03;93642.00;;;19.87;49.44
45793;BME280;31495;42.740;22.908;2022-07-17T04:20:03;93658.34;;;19.99;49.27
45793;BME280;31495;42.740;22.908;2022-07-17T04:21:06;93623.06;;;19.79;49.46
45793;BME280;31495;42.740;22.908;2022-07-17T04:22:05;93605.41;;;19.75;49.43
45793;BME280;31495;42.740;22.908;2022-07-17T04:23:05;93652.31;;;20.04;49.43
45793;BME280;31495;42.740;22.908;2022-07-17T04:24:04;93633.09;;;19.88;50.15
45793;BME280;31495;42.740;22.908;2022-07-17T04:25:04;93632.84;;;19.94;50.16
45793;BME280;31495;42.740;22.908;2022-07-17T04:26:04;93654.69;;;20.05;49.99
45793;BME280;31495;42.740;22.908;2022-07-17T04:27:06;93599.34;;;19.69;49.55
45793;BME280;31495;42.740;22.908;2022-07-17T04:28:05;93615.75;;;19.87;49.22
45793;BME280;31495;42.740;22.908;2022-07-17T04:29:05;93640.22;;;19.97;48.52
45793;BME280;31495;42.740;22.908;2022-07-17T04:30:05;93638.59;;;19.91;49.05
45793;BME280;31495;42.740;22.908;2022-07-17T04:31:05;93641.25;;;19.91;49.39
45793;BME280;31495;42.740;22.908;2022-07-17T04:32:05;93656.50;;;19.99;49.89
45793;BME280;31495;42.740;22.908;2022-07-17T04:33:05;93656.00;;;20.02;50.19
45793;BME280;31495;42.740;22.908;2022-07-17T04:34:04;93656.22;;;19.96;49.70
45793;BME280;31495;42.740;22.908;2022-07-17T04:35:04;93656.28;;;20.06;49.74
45793;BME280;31495;42.740;22.908;2022-07-17T04:36:04;93658.91;;;20.06;49.45
45793;BME280;31495;42.740;22.908;2022-07-17T04:37:04;93641.75;;;19.93;49.36
45793;BME280;31495;42.740;22.908;2022-07-17T04:38:05;93648.13;;;20.02;49.39
45793;BME280;31495;42.740;22.908;2022-07-17T04:39:05;93658.94;;;20.16;50.17
45793;BME280;31495;42.740;22.908;2022-07-17T04:40:05;93643.66;;;20.03;49.99
45793;BME280;31495;42.740;22.908;2022-07-17T04:41:05;93635.50;;;19.99;49.97
45793;BME280;31495;42.740;22.908;2022-07-17T04:42:04;93626.59;;;20.00;49.99
45793;BME280;31495;42.740;22.908;2022-07-17T04:43:04;93625.00;;;19.99;49.80
45793;BME280;31495;42.740;22.908;2022-07-17T04:44:03;93658.44;;;20.19;50.14
45793;BME280;31495;42.740;22.908;2022-07-17T04:45:04;93628.41;;;20.05;49.65
45793;BME280;31495;42.740;22.908;2022-07-17T04:46:05;93663.19;;;20.23;50.12
45793;BME280;31495;42.740;22.908;2022-07-17T04:47:05;93652.09;;;20.10;49.80
45793;BME280;31495;42.740;22.908;2022-07-17T04:48:05;93648.16;;;20.08;49.79
45793;BME280;31495;42.740;22.908;2022-07-17T04:49:04;93644.47;;;20.09;49.68
45793;BME280;31495;42.740;22.908;2022-07-17T04:50:04;93655.03;;;20.19;48.95
45793;BME280;31495;42.740;22.908;2022-07-17T04:51:04;93623.16;;;20.05;48.51
45793;BME280;31495;42.740;22.908;2022-07-17T04:52:03;93619.22;;;19.97;47.61
45793;BME280;31495;42.740;22.908;2022-07-17T04:53:03;93639.75;;;20.11;47.56
45793;BME280;31495;42.740;22.908;2022-07-17T04:54:03;93638.66;;;20.07;47.36
45793;BME280;31495;42.740;22.908;2022-07-17T04:55:03;93630.25;;;20.05;47.18
45793;BME280;31495;42.740;22.908;2022-07-17T04:56:03;93651.63;;;20.18;47.13
45793;BME280;31495;42.740;22.908;2022-07-17T04:57:03;93651.63;;;20.18;47.90
45793;BME280;31495;42.740;22.908;2022-07-17T04:58:02;93650.81;;;20.18;47.98
45793;BME280;31495;42.740;22.908;2022-07-17T04:59:02;93660.56;;;20.23;48.56
45793;BME280;31495;42.740;22.908;2022-07-17T05:00:04;93674.00;;;20.36;48.21
45793;BME280;31495;42.740;22.908;2022-07-17T05:01:04;93672.19;;;20.37;48.33
45793;BME280;31495;42.740;22.908;2022-07-17T05:02:04;93651.63;;;20.24;48.62
45793;BME280;31495;42.740;22.908;2022-07-17T05:03:03;93655.84;;;20.30;49.21
45793;BME280;31495;42.740;22.908;2022-07-17T05:04:02;93671.66;;;20.40;48.56
45793;BME280;31495;42.740;22.908;2022-07-17T05:05:03;93669.56;;;20.42;48.92
45793;BME280;31495;42.740;22.908;2022-07-17T05:06:04;93665.09;;;20.48;48.71
45793;BME280;31495;42.740;22.908;2022-07-17T05:07:03;93657.72;;;20.39;48.11
45793;BME280;31495;42.740;22.908;2022-07-17T05:08:03;93661.69;;;20.42;48.30
45793;BME280;31495;42.740;22.908;2022-07-17T05:09:02;93671.72;;;20.55;47.77
45793;BME280;31495;42.740;22.908;2022-07-17T05:10:03;93678.31;;;20.58;48.12
45793;BME280;31495;42.740;22.908;2022-07-17T05:11:03;93681.44;;;20.60;47.90
45793;BME280;31495;42.740;22.908;2022-07-17T05:12:03;93668.81;;;20.52;47.96
45793;BME280;31495;42.740;22.908;2022-07-17T05:13:02;93650.09;;;20.38;48.60